Time;durP1;ratioP1;P1;durP2;ratioP2;P2;SDS_P1;SDS_P2;PMS_P1;PMS_P2;Temp;Humidity;BMP_temperature;BMP_pressure;BME280_temperature;BME280_humidity;BME280_pressure;Samples;Min_cycle;Max_cycle;Signal;HPM_P1;HPM_P2
2021/04/29 00:00:00;;;;;;;;;;;;;;;17.15;30.99;99960.94;4891555;28;96834;-79
2021/04/29 00:02:26;;;;;;;;;;;;;;;16.97;31.42;99954.31;4892212;28;97494;-78
2021/04/29 00:04:52;;;;;;;;;;;;;;;16.52;31.93;99961.16;4891437;28;98921;-78
2021/04/29 00:07:18;;;;;;;;;;;;;;;17.14;31.15;99957.41;4892073;28;102898;-78
2021/04/29 00:09:44;;;;;;;;;;;;;;;17.02;31.30;99957.47;4890590;28;96898;-77
2021/04/29 00:12:10;;;;;;;;;;;;;;;17.31;30.80;99968.66;4894897;28;96977;-77
2021/04/29 00:14:36;;;;;;;;;;;;;;;17.67;30.59;99959.66;4900247;28;99349;-77
2021/04/29 00:17:02;;;;;;;;;;;;;;;17.71;30.43;99954.00;4894786;28;98147;-78
2021/04/29 00:19:28;;;;;;;;;;;;;;;17.54;30.71;99957.06;4900527;28;96720;-77
2021/04/29 00:21:55;;;;;;;;;;;;;;;17.52;30.71;99959.03;4902257;28;96822;-77
2021/04/29 00:24:20;;;;;;;;;;;;;;;17.25;31.03;99956.63;4898475;28;97969;-78
2021/04/29 00:26:46;;;;;;;;;;;;;;;17.48;30.71;99958.38;4906108;28;101394;-78
2021/04/29 00:29:12;;;;;;;;;;;;;;;17.41;30.80;99953.63;4902480;28;97130;-77
2021/04/29 00:31:38;;;;;;;;;;;;;;;17.46;30.71;99954.97;4905483;28;96946;-79
2021/04/29 00:34:04;;;;;;;;;;;;;;;17.46;30.65;99954.97;4907446;28;97803;-79
2021/04/29 00:36:30;;;;;;;;;;;;;;;17.60;30.56;99951.25;4905529;28;97658;-77
2021/04/29 00:38:56;;;;;;;;;;;;;;;17.67;30.53;99947.16;4907197;28;97165;-79
2021/04/29 00:41:23;;;;;;;;;;;;;;;17.61;30.60;99950.31;4908979;28;97767;-79
2021/04/29 00:43:48;;;;;;;;;;;;;;;17.62;30.53;99949.34;4907837;28;98673;-77
2021/04/29 00:46:14;;;;;;;;;;;;;;;17.59;30.53;99949.53;4902500;28;96989;-79
2021/04/29 00:48:41;;;;;;;;;;;;;;;17.48;30.77;99962.88;4904383;28;97051;-78
2021/04/29 00:51:06;;;;;;;;;;;;;;;16.86;31.63;99959.59;4895612;28;96753;-78
2021/04/29 00:53:34;;;;;;;;;;;;;;;16.73;32.06;99959.66;4882517;28;100020;-80
2021/04/29 00:56:00;;;;;;;;;;;;;;;17.08;31.50;99949.84;4895436;28;98030;-77
2021/04/29 00:58:26;;;;;;;;;;;;;;;17.18;31.37;99951.84;4893359;28;96870;-77
2021/04/29 01:00:52;;;;;;;;;;;;;;;17.14;31.53;99946.72;4892810;28;98816;-77
2021/04/29 01:03:19;;;;;;;;;;;;;;;17.26;31.27;99941.44;4884974;28;99164;-77
2021/04/29 01:05:47;;;;;;;;;;;;;;;17.43;31.13;99941.00;4880594;28;98497;-78
2021/04/29 01:08:14;;;;;;;;;;;;;;;16.96;31.75;99934.78;4891196;28;96878;-79
2021/04/29 01:10:43;;;;;;;;;;;;;;;16.88;31.92;99937.16;4891098;28;96841;-79
2021/04/29 01:13:11;;;;;;;;;;;;;;;16.79;32.16;99931.66;4885801;28;100829;-80
2021/04/29 01:15:38;;;;;;;;;;;;;;;16.81;32.16;99932.38;4882943;28;98194;-78
2021/04/29 01:18:05;;;;;;;;;;;;;;;16.86;32.23;99927.56;4893373;28;97432;-79
2021/04/29 01:20:36;;;;;;;;;;;;;;;17.13;31.57;99925.50;4892680;28;97152;-79
2021/04/29 01:23:06;;;;;;;;;;;;;;;17.17;31.64;99926.97;4899507;28;99047;-79
2021/04/29 01:25:32;;;;;;;;;;;;;;;16.96;32.13;99924.09;4897885;28;99284;-79
2021/04/29 01:27:59;;;;;;;;;;;;;;;17.29;31.48;99931.38;4903131;28;96697;-78
2021/04/29 01:30:26;;;;;;;;;;;;;;;17.26;31.33;99928.97;4895695;28;97147;-78
2021/04/29 01:32:53;;;;;;;;;;;;;;;17.16;31.57;99935.09;4893794;28;97887;-78
2021/04/29 01:35:19;;;;;;;;;;;;;;;17.07;31.73;99926.78;4905053;28;98058;-78
2021/04/29 01:37:46;;;;;;;;;;;;;;;16.99;31.77;99923.88;4896466;28;96697;-79
2021/04/29 01:40:12;;;;;;;;;;;;;;;17.07;31.85;99929.47;4889402;28;97509;-77
2021/04/29 01:42:38;;;;;;;;;;;;;;;17.05;31.82;99922.56;4896260;28;99335;-78
2021/04/29 01:45:07;;;;;;;;;;;;;;;17.04;31.99;99927.03;4892912;28;99031;-79
2021/04/29 01:47:34;;;;;;;;;;;;;;;17.22;31.58;99921.28;4892758;28;97271;-78
2021/04/29 01:50:02;;;;;;;;;;;;;;;17.14;31.79;99920.03;4893466;28;97114;-79
2021/04/29 01:52:28;;;;;;;;;;;;;;;17.31;31.49;99918.78;4895350;28;99214;-79
2021/04/29 01:54:54;;;;;;;;;;;;;;;17.18;31.71;99912.66;4895814;28;99227;-79
2021/04/29 01:57:21;;;;;;;;;;;;;;;17.23;31.71;99904.28;4896149;28;96943;-79
2021/04/29 01:59:47;;;;;;;;;;;;;;;17.26;31.73;99910.28;4894746;28;97246;-79
2021/04/29 02:02:13;;;;;;;;;;;;;;;17.16;31.86;99897.72;4895643;28;97518;-79
2021/04/29 02:04:39;;;;;;;;;;;;;;;17.02;32.14;99899.59;4894449;28;99124;-79
2021/04/29 02:07:05;;;;;;;;;;;;;;;17.25;31.91;99905.03;4894686;28;97434;-79
2021/04/29 02:09:32;;;;;;;;;;;;;;;17.19;32.11;99908.19;4893488;28;97000;-77
2021/04/29 02:11:59;;;;;;;;;;;;;;;17.14;32.07;99896.00;4894837;28;98880;-79
2021/04/29 02:14:30;;;;;;;;;;;;;;;16.84;32.71;99898.31;4886299;28;98939;-80
2021/04/29 02:16:57;;;;;;;;;;;;;;;16.89;32.47;99893.50;4896147;28;97206;-80
2021/04/29 02:19:25;;;;;;;;;;;;;;;16.84;32.60;99889.47;4897176;28;96886;-79
2021/04/29 02:21:51;;;;;;;;;;;;;;;17.11;32.41;99884.72;4894021;28;101652;-79
2021/04/29 02:24:18;;;;;;;;;;;;;;;17.16;32.08;99884.38;4909013;28;99122;-80
2021/04/29 02:26:44;;;;;;;;;;;;;;;17.12;32.16;99871.28;4900563;28;96618;-79
2021/04/29 02:29:10;;;;;;;;;;;;;;;17.04;32.20;99865.66;4901606;28;97269;-79
2021/04/29 02:31:36;;;;;;;;;;;;;;;17.03;32.35;99865.78;4898193;28;98102;-79
2021/04/29 02:34:03;;;;;;;;;;;;;;;17.24;32.05;99857.94;4902300;28;99207;-80
2021/04/29 02:36:31;;;;;;;;;;;;;;;17.03;32.33;99861.28;4903284;28;96765;-79
2021/04/29 02:38:58;;;;;;;;;;;;;;;16.89;32.45;99858.81;4905226;28;96882;-79
2021/04/29 02:41:25;;;;;;;;;;;;;;;16.69;32.63;99862.97;4905628;28;98152;-78
2021/04/29 02:43:51;;;;;;;;;;;;;;;16.65;32.76;99852.66;4910895;28;98793;-79
2021/04/29 02:46:17;;;;;;;;;;;;;;;16.71;32.69;99849.53;4901420;28;97024;-78
2021/04/29 02:48:43;;;;;;;;;;;;;;;16.91;32.32;99851.53;4903936;28;96765;-79
2021/04/29 02:51:10;;;;;;;;;;;;;;;16.78;32.42;99845.44;4899583;28;97773;-79
2021/04/29 02:53:36;;;;;;;;;;;;;;;16.86;32.47;99848.38;4894072;28;97634;-78
2021/04/29 02:56:02;;;;;;;;;;;;;;;17.11;32.27;99847.34;4899632;28;97204;-78
2021/04/29 02:58:31;;;;;;;;;;;;;;;16.83;32.49;99837.94;4905922;28;96874;-76
2021/04/29 03:00:58;;;;;;;;;;;;;;;16.80;32.64;99843.50;4907860;28;101018;-78
2021/04/29 03:03:24;;;;;;;;;;;;;;;16.94;32.36;99837.94;4914686;28;97893;-78
2021/04/29 03:05:50;;;;;;;;;;;;;;;17.22;32.16;99834.03;4901278;28;96683;-78
2021/04/29 03:08:16;;;;;;;;;;;;;;;17.11;32.29;99828.69;4904463;28;97137;-78
2021/04/29 03:10:43;;;;;;;;;;;;;;;17.37;31.87;99832.00;4900817;28;98021;-79
2021/04/29 03:13:08;;;;;;;;;;;;;;;17.16;32.25;99833.66;4902388;28;98116;-78
2021/04/29 03:15:35;;;;;;;;;;;;;;;16.97;32.79;99834.22;4892111;28;97023;-79
2021/04/29 03:18:01;;;;;;;;;;;;;;;16.88;32.98;99833.09;4882510;28;96972;-78
2021/04/29 03:20:27;;;;;;;;;;;;;;;16.84;33.11;99834.28;4894547;28;98907;-78
2021/04/29 03:22:53;;;;;;;;;;;;;;;17.00;32.79;99828.66;4882152;28;100833;-78
2021/04/29 03:25:18;;;;;;;;;;;;;;;17.44;32.23;99819.88;4893743;28;96679;-79
2021/04/29 03:27:45;;;;;;;;;;;;;;;17.10;32.62;99824.31;4902270;28;96804;-79
2021/04/29 03:30:11;;;;;;;;;;;;;;;16.83;33.35;99829.06;4896863;28;98944;-80
2021/04/29 03:32:38;;;;;;;;;;;;;;;16.70;33.55;99822.00;4895666;28;101652;-79
2021/04/29 03:35:05;;;;;;;;;;;;;;;16.78;33.51;99828.56;4896361;28;96735;-79
2021/04/29 03:37:30;;;;;;;;;;;;;;;17.13;32.98;99842.75;4894224;28;97477;-80
2021/04/29 03:39:56;;;;;;;;;;;;;;;17.14;32.98;99829.28;4894768;28;99419;-80
2021/04/29 03:42:22;;;;;;;;;;;;;;;17.04;33.17;99838.13;4893532;28;100007;-79
2021/04/29 03:44:49;;;;;;;;;;;;;;;16.70;33.59;99839.81;4894142;28;96897;-80
2021/04/29 03:47:15;;;;;;;;;;;;;;;16.73;33.68;99843.13;4900338;28;96913;-79
2021/04/29 03:49:41;;;;;;;;;;;;;;;16.86;33.58;99836.84;4896862;28;99316;-79
2021/04/29 03:52:07;;;;;;;;;;;;;;;16.93;33.56;99849.63;4893789;28;99303;-79
2021/04/29 03:54:32;;;;;;;;;;;;;;;17.04;33.56;99846.13;4890341;28;96724;-80
2021/04/29 03:56:58;;;;;;;;;;;;;;;17.24;33.21;99848.13;4891697;28;97163;-80
2021/04/29 03:59:24;;;;;;;;;;;;;;;17.10;33.50;99846.50;4894484;28;99195;-79
2021/04/29 04:01:51;;;;;;;;;;;;;;;17.09;33.32;99841.28;4897455;28;98754;-80
2021/04/29 04:04:17;;;;;;;;;;;;;;;17.28;33.32;99844.22;4895487;28;96764;-78
2021/04/29 04:06:43;;;;;;;;;;;;;;;17.19;33.64;99841.44;4895158;28;96917;-79
2021/04/29 04:09:09;;;;;;;;;;;;;;;16.90;34.51;99832.97;4900552;28;97918;-78
2021/04/29 04:11:35;;;;;;;;;;;;;;;16.73;34.66;99847.59;4907433;28;99148;-78
2021/04/29 04:14:01;;;;;;;;;;;;;;;16.46;35.80;99868.28;4909954;28;96809;-78
2021/04/29 04:16:29;;;;;;;;;;;;;;;16.47;36.37;99880.66;4909401;28;96803;-79
2021/04/29 04:18:55;;;;;;;;;;;;;;;16.83;35.67;99869.94;4914124;28;97888;-78
2021/04/29 04:21:21;;;;;;;;;;;;;;;16.26;37.18;99862.59;4909468;28;101456;-76
2021/04/29 04:23:47;;;;;;;;;;;;;;;15.26;40.33;99853.72;4909659;28;96632;-78
2021/04/29 04:26:13;;;;;;;;;;;;;;;15.31;40.06;99824.13;4913742;28;97086;-77
2021/04/29 04:28:39;;;;;;;;;;;;;;;15.02;41.53;99815.50;4914797;28;97125;-79
2021/04/29 04:31:05;;;;;;;;;;;;;;;15.34;40.65;99827.44;4913239;28;97539;-78
2021/04/29 04:33:33;;;;;;;;;;;;;;;15.76;41.05;99820.06;4913989;28;97127;-78
2021/04/29 04:35:59;;;;;;;;;;;;;;;16.24;40.97;99815.69;4906395;28;97084;-80
2021/04/29 04:38:25;;;;;;;;;;;;;;;16.71;39.84;99804.19;4909061;28;98804;-79
2021/04/29 04:40:51;;;;;;;;;;;;;;;16.84;38.96;99796.09;4893561;28;99165;-80
2021/04/29 04:43:17;;;;;;;;;;;;;;;16.63;40.80;99809.22;4892863;28;98798;-78
2021/04/29 04:45:43;;;;;;;;;;;;;;;16.87;39.41;99806.53;4888977;28;96922;-78
2021/04/29 04:48:09;;;;;;;;;;;;;;;16.10;40.56;99791.84;4896050;28;99559;-79
2021/04/29 04:50:35;;;;;;;;;;;;;;;16.16;41.66;99802.06;4894491;28;99205;-79
2021/04/29 04:53:02;;;;;;;;;;;;;;;16.51;41.41;99810.13;4893377;28;96972;-79
2021/04/29 04:55:28;;;;;;;;;;;;;;;16.59;41.25;99789.06;4896871;28;97203;-79
2021/04/29 04:57:54;;;;;;;;;;;;;;;16.60;41.87;99793.47;4892975;28;99176;-78
2021/04/29 05:00:20;;;;;;;;;;;;;;;16.39;44.19;99800.38;4897515;28;99346;-79
2021/04/29 05:02:46;;;;;;;;;;;;;;;16.23;44.89;99817.50;4897185;28;97188;-79
2021/04/29 05:05:13;;;;;;;;;;;;;;;16.56;43.29;99814.13;4899472;28;96829;-80
2021/04/29 05:07:39;;;;;;;;;;;;;;;16.17;44.71;99806.44;4878968;28;97588;-79
2021/04/29 05:10:07;;;;;;;;;;;;;;;16.42;43.45;99816.13;4895722;28;98654;-79
2021/04/29 05:12:32;;;;;;;;;;;;;;;16.62;43.45;99818.19;4905292;28;96664;-79
2021/04/29 05:14:58;;;;;;;;;;;;;;;16.59;42.63;99826.41;4892684;28;96996;-77
2021/04/29 05:17:24;;;;;;;;;;;;;;;16.69;43.15;99836.28;4899522;28;101737;-79
2021/04/29 05:19:50;;;;;;;;;;;;;;;16.34;42.65;99844.19;4896274;28;98847;-79
2021/04/29 05:22:16;;;;;;;;;;;;;;;16.49;42.02;99842.22;4895918;28;97146;-78
2021/04/29 05:24:42;;;;;;;;;;;;;;;16.39;41.53;99838.56;4882088;28;96954;-79
2021/04/29 05:27:09;;;;;;;;;;;;;;;16.55;40.52;99832.91;4897008;28;98856;-80
2021/04/29 05:29:34;;;;;;;;;;;;;;;16.46;40.42;99841.63;4889954;28;101563;-80
2021/04/29 05:32:00;;;;;;;;;;;;;;;16.41;40.43;99841.94;4886659;28;97210;-81
2021/04/29 05:34:29;;;;;;;;;;;;;;;16.58;39.70;99838.88;4891932;28;96937;-80
2021/04/29 05:36:55;;;;;;;;;;;;;;;16.57;40.33;99825.66;4893059;28;99095;-79
2021/04/29 05:39:20;;;;;;;;;;;;;;;16.50;39.52;99824.41;4894978;28;97669;-80
2021/04/29 05:41:46;;;;;;;;;;;;;;;16.83;39.22;99832.59;4893316;28;97253;-79
2021/04/29 05:44:13;;;;;;;;;;;;;;;16.65;39.43;99826.84;4896534;28;96819;-80
2021/04/29 05:46:41;;;;;;;;;;;;;;;16.59;39.57;99829.06;4892774;28;99855;-79
2021/04/29 05:49:07;;;;;;;;;;;;;;;16.48;39.66;99827.19;4877911;28;98962;-79
2021/04/29 05:51:33;;;;;;;;;;;;;;;16.39;39.55;99827.03;4892184;28;98353;-81
2021/04/29 05:53:58;;;;;;;;;;;;;;;16.49;40.81;99828.03;4896092;28;96838;-80
2021/04/29 05:56:24;;;;;;;;;;;;;;;16.60;40.24;99817.47;4894528;28;98431;-80
2021/04/29 05:58:50;;;;;;;;;;;;;;;16.45;41.12;99813.25;4895182;28;97944;-79
2021/04/29 06:01:17;;;;;;;;;;;;;;;16.69;42.28;99816.75;4894267;28;96846;-79
2021/04/29 06:03:43;;;;;;;;;;;;;;;16.55;41.79;99811.56;4892854;28;96840;-79
2021/04/29 06:06:09;;;;;;;;;;;;;;;16.67;42.84;99818.72;4893277;28;99264;-81
2021/04/29 06:08:35;;;;;;;;;;;;;;;16.78;42.33;99817.91;4896847;28;97706;-78
2021/04/29 06:11:01;;;;;;;;;;;;;;;16.88;42.50;99809.06;4885353;28;97182;-78
2021/04/29 06:13:29;;;;;;;;;;;;;;;16.74;42.95;99806.59;4896881;28;97799;-78
2021/04/29 06:15:55;;;;;;;;;;;;;;;16.71;43.43;99817.50;4897623;28;97240;-80
2021/04/29 06:18:22;;;;;;;;;;;;;;;16.57;44.25;99820.31;4898522;28;102547;-79
2021/04/29 06:20:49;;;;;;;;;;;;;;;16.42;44.57;99806.31;4890028;28;96849;-81
2021/04/29 06:23:17;;;;;;;;;;;;;;;16.89;43.82;99810.78;4895539;28;96865;-78
2021/04/29 06:25:42;;;;;;;;;;;;;;;16.62;45.06;99811.03;4894351;28;98413;-77
2021/04/29 06:28:08;;;;;;;;;;;;;;;16.52;45.78;99811.81;4890865;28;101009;-79
2021/04/29 06:30:34;;;;;;;;;;;;;;;17.11;44.63;99801.97;4895933;28;96771;-77
2021/04/29 06:33:00;;;;;;;;;;;;;;;16.96;46.11;99814.69;4887609;28;97529;-79
2021/04/29 06:35:28;;;;;;;;;;;;;;;16.66;47.44;99830.34;4896417;28;98541;-81
2021/04/29 06:37:54;;;;;;;;;;;;;;;16.47;46.70;99830.84;4894087;28;99189;-81
2021/04/29 06:40:22;;;;;;;;;;;;;;;16.49;48.62;99833.38;4897415;28;96822;-80
2021/04/29 06:42:48;;;;;;;;;;;;;;;16.40;48.92;99834.94;4897104;28;96822;-80
2021/04/29 06:45:14;;;;;;;;;;;;;;;16.24;48.71;99839.66;4898356;28;99277;-80
2021/04/29 06:47:40;;;;;;;;;;;;;;;16.20;49.12;99836.38;4898554;28;101369;-79
2021/04/29 06:50:06;;;;;;;;;;;;;;;16.31;48.88;99836.44;4893724;28;98037;-79
2021/04/29 06:52:33;;;;;;;;;;;;;;;16.29;48.96;99825.03;4890604;28;96817;-80
2021/04/29 06:54:59;;;;;;;;;;;;;;;16.48;48.99;99832.50;4896724;28;101384;-80
2021/04/29 06:57:25;;;;;;;;;;;;;;;16.33;48.87;99829.19;4900695;28;98155;-80
2021/04/29 06:59:51;;;;;;;;;;;;;;;16.35;49.18;99829.91;4896577;28;97329;-80
2021/04/29 07:02:19;;;;;;;;;;;;;;;16.33;49.92;99829.19;4885133;28;98417;-80
2021/04/29 07:04:45;;;;;;;;;;;;;;;16.37;49.93;99823.63;4885266;28;97860;-80
2021/04/29 07:07:13;;;;;;;;;;;;;;;16.44;50.10;99819.53;4889957;28;98882;-81
2021/04/29 07:09:40;;;;;;;;;;;;;;;16.35;50.57;99816.56;4901841;28;98142;-81
2021/04/29 07:12:06;;;;;;;;;;;;;;;16.68;50.18;99807.06;4899251;28;96801;-81
2021/04/29 07:14:32;;;;;;;;;;;;;;;16.31;51.10;99804.44;4882916;28;98527;-80
2021/04/29 07:16:58;;;;;;;;;;;;;;;16.78;50.95;99805.41;4894519;28;97652;-82
2021/04/29 07:19:25;;;;;;;;;;;;;;;16.82;50.88;99808.69;4895970;28;97542;-82
2021/04/29 07:21:58;;;;;;;;;;;;;;;16.85;50.74;99803.13;4896913;28;97298;-81
2021/04/29 07:24:24;;;;;;;;;;;;;;;16.90;50.88;99800.97;4885141;28;101259;-80
2021/04/29 07:26:51;;;;;;;;;;;;;;;16.78;51.65;99800.06;4892305;28;100940;-80
2021/04/29 07:29:17;;;;;;;;;;;;;;;16.89;51.17;99800.09;4896480;28;97095;-80
2021/04/29 07:31:43;;;;;;;;;;;;;;;16.86;50.68;99796.84;4901427;28;96991;-80
2021/04/29 07:34:11;;;;;;;;;;;;;;;16.37;51.71;99807.63;4896781;28;100859;-79
2021/04/29 07:36:37;;;;;;;;;;;;;;;16.40;52.00;99807.41;4895541;28;98901;-81
2021/04/29 07:39:04;;;;;;;;;;;;;;;16.49;51.92;99810.22;4892959;28;96982;-80
2021/04/29 07:41:31;;;;;;;;;;;;;;;16.34;51.96;99806.88;4890538;28;97164;-79
2021/04/29 07:43:58;;;;;;;;;;;;;;;16.29;51.88;99801.03;4892350;28;97982;-80
2021/04/29 07:46:27;;;;;;;;;;;;;;;16.28;51.95;99815.31;4894882;28;99592;-80
2021/04/29 07:48:53;;;;;;;;;;;;;;;15.89;54.22;99843.06;4892272;28;97088;-81
2021/04/29 07:51:20;;;;;;;;;;;;;;;15.69;54.56;99827.63;4905771;28;96928;-81
2021/04/29 07:53:46;;;;;;;;;;;;;;;15.57;54.46;99832.97;4894154;28;102052;-79
2021/04/29 07:56:12;;;;;;;;;;;;;;;15.24;54.96;99830.81;4894517;28;98805;-80
2021/04/29 07:58:38;;;;;;;;;;;;;;;15.48;54.84;99829.16;4892267;28;96923;-82
2021/04/29 08:01:05;;;;;;;;;;;;;;;15.16;55.66;99820.75;4897905;28;98499;-80
2021/04/29 08:03:31;;;;;;;;;;;;;;;15.35;55.97;99818.50;4866059;28;98140;-81
2021/04/29 08:05:57;;;;;;;;;;;;;;;15.13;56.17;99818.28;4893408;28;97097;-82
2021/04/29 08:08:23;;;;;;;;;;;;;;;15.37;56.14;99821.88;4899638;28;96712;-80
2021/04/29 08:10:49;;;;;;;;;;;;;;;15.23;56.79;99813.19;4900352;28;97079;-81
2021/04/29 08:13:15;;;;;;;;;;;;;;;14.83;58.04;99815.06;4902819;28;96825;-81
2021/04/29 08:15:41;;;;;;;;;;;;;;;15.17;57.71;99811.78;4904680;28;96802;-80
2021/04/29 08:18:12;;;;;;;;;;;;;;;15.19;57.50;99812.53;4907057;28;96889;-81
2021/04/29 08:20:39;;;;;;;;;;;;;;;14.92;58.80;99804.63;4898350;28;96853;-80
2021/04/29 08:23:05;;;;;;;;;;;;;;;15.19;58.28;99795.69;4894447;28;99363;-80
2021/04/29 08:25:31;;;;;;;;;;;;;;;15.48;57.46;99795.38;4893837;28;101457;-79
2021/04/29 08:27:57;;;;;;;;;;;;;;;15.19;58.12;99795.69;4883017;28;96826;-80
2021/04/29 08:30:27;;;;;;;;;;;;;;;15.35;58.12;99796.34;4895630;28;96954;-79
2021/04/29 08:32:53;;;;;;;;;;;;;;;15.45;57.69;99792.06;4892445;28;98150;-79
2021/04/29 08:35:23;;;;;;;;;;;;;;;15.19;58.48;99785.06;4894486;28;100293;-79
2021/04/29 08:37:51;;;;;;;;;;;;;;;15.12;58.68;99790.81;4887833;28;97692;-78
2021/04/29 08:40:17;;;;;;;;;;;;;;;15.15;58.51;99785.28;4882175;28;97916;-79
2021/04/29 08:42:43;;;;;;;;;;;;;;;15.01;59.09;99792.50;4884520;28;99160;-78
2021/04/29 08:45:10;;;;;;;;;;;;;;;15.22;58.80;99785.72;4893602;28;99253;-80
2021/04/29 08:47:36;;;;;;;;;;;;;;;15.41;58.68;99790.59;4890230;28;98828;-80
2021/04/29 08:50:03;;;;;;;;;;;;;;;15.73;57.69;99791.84;4894741;28;96805;-79
2021/04/29 08:52:30;;;;;;;;;;;;;;;15.58;58.21;99800.94;4893399;28;100515;-78
2021/04/29 08:57:44;;;;;;;;;;;;;;;15.35;59.00;99799.88;4893944;28;97021;-80
2021/04/29 09:00:11;;;;;;;;;;;;;;;14.91;60.03;99802.91;4886019;28;96951;-80
2021/04/29 09:02:37;;;;;;;;;;;;;;;15.03;60.32;99785.28;4888320;28;100757;-80
2021/04/29 09:05:14;;;;;;;;;;;;;;;15.28;59.42;99797.75;4890876;28;98280;-79
2021/04/29 09:07:51;;;;;;;;;;;;;;;15.21;59.51;99807.97;4893725;28;97591;-81
2021/04/29 09:10:21;;;;;;;;;;;;;;;15.59;58.69;99804.44;4897125;28;97255;-80
2021/04/29 09:12:47;;;;;;;;;;;;;;;15.82;57.57;99801.84;4896652;28;99351;-81
2021/04/29 09:15:21;;;;;;;;;;;;;;;15.87;57.52;99799.72;4880578;28;99089;-80
2021/04/29 09:17:50;;;;;;;;;;;;;;;16.24;56.60;99797.00;4900042;28;96982;-79
2021/04/29 09:20:21;;;;;;;;;;;;;;;16.12;56.91;99796.13;4900338;28;96885;-78
2021/04/29 09:22:56;;;;;;;;;;;;;;;16.25;56.83;99794.25;4904885;28;100232;-79
2021/04/29 09:25:23;;;;;;;;;;;;;;;16.16;56.82;99789.59;4900237;28;99122;-80
2021/04/29 09:27:52;;;;;;;;;;;;;;;16.31;57.32;99790.28;4905627;28;96773;-79
2021/04/29 09:30:23;;;;;;;;;;;;;;;16.80;56.08;99786.63;4903916;28;97378;-79
2021/04/29 09:32:49;;;;;;;;;;;;;;;16.72;56.14;99785.41;4901320;28;99230;-78
2021/04/29 09:35:17;;;;;;;;;;;;;;;16.42;56.65;99782.31;4901636;28;101314;-78
2021/04/29 09:37:43;;;;;;;;;;;;;;;16.26;57.51;99779.09;4896068;28;97044;-78
2021/04/29 09:40:25;;;;;;;;;;;;;;;16.95;56.16;99777.44;4900014;28;97738;-80
2021/04/29 09:42:52;;;;;;;;;;;;;;;16.84;55.68;99783.59;4893699;28;99144;-80
2021/04/29 09:45:19;;;;;;;;;;;;;;;17.45;54.39;99769.00;4903869;28;97349;-79
2021/04/29 09:47:59;;;;;;;;;;;;;;;18.13;52.97;99770.63;4909560;28;96723;-80
2021/04/29 09:50:26;;;;;;;;;;;;;;;18.94;50.57;99778.09;4905331;28;96566;-82
2021/04/29 09:53:04;;;;;;;;;;;;;;;19.12;50.15;99773.00;4911434;28;98858;-80
2021/04/29 09:55:30;;;;;;;;;;;;;;;19.55;49.32;99766.63;4910261;28;97571;-80
2021/04/29 09:58:08;;;;;;;;;;;;;;;19.17;50.43;99765.41;4913998;28;96112;-80
2021/04/29 10:00:33;;;;;;;;;;;;;;;19.38;48.84;99771.59;4916150;28;96782;-83
2021/04/29 10:03:00;;;;;;;;;;;;;;;19.90;47.99;99762.50;4906092;28;100406;-81
2021/04/29 10:05:26;;;;;;;;;;;;;;;20.51;46.92;99770.38;4898340;28;98352;-80
2021/04/29 10:07:53;;;;;;;;;;;;;;;21.05;46.00;99767.09;4902443;28;97146;-81
2021/04/29 10:10:20;;;;;;;;;;;;;;;20.77;45.94;99765.28;4900390;28;97146;-80
2021/04/29 10:12:47;;;;;;;;;;;;;;;20.92;46.20;99769.25;4894451;28;99007;-81
2021/04/29 10:15:14;;;;;;;;;;;;;;;20.57;46.55;99771.66;4901648;28;99440;-81
2021/04/29 10:17:40;;;;;;;;;;;;;;;20.21;46.80;99770.47;4900176;28;97115;-81
2021/04/29 10:20:07;;;;;;;;;;;;;;;20.16;47.83;99781.59;4891862;28;96739;-81
2021/04/29 10:22:32;;;;;;;;;;;;;;;19.81;48.31;99775.91;4901811;28;99244;-80
2021/04/29 10:24:58;;;;;;;;;;;;;;;19.63;48.63;99780.19;4913215;28;98799;-79
2021/04/29 10:27:26;;;;;;;;;;;;;;;18.74;50.76;99780.78;4898335;28;96813;-81
2021/04/29 10:30:01;;;;;;;;;;;;;;;18.71;51.36;99790.75;4910275;28;96838;-80
2021/04/29 10:32:31;;;;;;;;;;;;;;;18.49;51.85;99790.84;4907915;28;96901;-81
2021/04/29 10:34:57;;;;;;;;;;;;;;;18.66;51.42;99792.13;4924344;28;97811;-81
2021/04/29 10:37:26;;;;;;;;;;;;;;;18.57;52.18;99796.44;4913250;23;97307;-81
2021/04/29 10:39:53;;;;;;;;;;;;;;;19.36;50.03;99797.66;4899824;28;96780;-80
2021/04/29 10:42:19;;;;;;;;;;;;;;;19.66;48.77;99799.53;4885649;28;99481;-81
2021/04/29 10:44:47;;;;;;;;;;;;;;;19.17;50.35;99794.88;4886261;28;99369;-81
2021/04/29 10:47:23;;;;;;;;;;;;;;;19.81;48.26;99802.69;4880819;28;96909;-80
2021/04/29 10:49:51;;;;;;;;;;;;;;;19.90;47.63;99802.72;4889479;28;97182;-81
2021/04/29 10:52:19;;;;;;;;;;;;;;;19.96;47.29;99805.81;4897446;28;100280;-80
2021/04/29 10:54:48;;;;;;;;;;;;;;;20.45;45.86;99780.84;4885088;28;100588;-81
2021/04/29 10:57:16;;;;;;;;;;;;;;;20.39;45.89;99790.28;4890747;28;97109;-80
2021/04/29 10:59:43;;;;;;;;;;;;;;;20.88;44.68;99788.44;4893966;28;96867;-81
2021/04/29 11:02:25;;;;;;;;;;;;;;;20.90;43.80;99795.38;4885323;28;99110;-80
2021/04/29 11:04:53;;;;;;;;;;;;;;;21.32;43.41;99795.06;4895580;28;98802;-80
2021/04/29 11:07:22;;;;;;;;;;;;;;;20.76;44.72;99795.81;4895037;28;97115;-80
2021/04/29 11:09:58;;;;;;;;;;;;;;;20.04;45.48;99804.16;4900169;28;96829;-80
2021/04/29 11:12:39;;;;;;;;;;;;;;;19.60;46.00;99809.94;4902553;28;99360;-80
2021/04/29 11:15:06;;;;;;;;;;;;;;;19.99;45.64;99806.41;4901358;28;99654;-80
2021/04/29 11:17:32;;;;;;;;;;;;;;;20.59;44.53;99813.47;4891805;28;96745;-80
2021/04/29 11:19:59;;;;;;;;;;;;;;;20.72;43.34;99805.13;4899327;28;98126;-82
2021/04/29 11:22:26;;;;;;;;;;;;;;;20.79;43.45;99803.59;4899522;28;100874;-81
2021/04/29 11:24:53;;;;;;;;;;;;;;;21.41;42.54;99796.84;4893318;28;98154;-80
2021/04/29 11:27:19;;;;;;;;;;;;;;;21.09;41.78;99800.72;4899774;28;97072;-82
2021/04/29 11:29:45;;;;;;;;;;;;;;;21.24;42.47;99793.09;4899109;28;96863;-79
2021/04/29 11:32:11;;;;;;;;;;;;;;;21.41;42.46;99796.84;4895406;28;98389;-80
2021/04/29 11:34:41;;;;;;;;;;;;;;;21.39;41.89;99805.09;4899367;28;101173;-80
2021/04/29 11:37:07;;;;;;;;;;;;;;;21.80;41.89;99793.00;4892149;28;97348;-81
2021/04/29 11:39:33;;;;;;;;;;;;;;;21.76;41.39;99813.13;4879965;28;96838;-80
2021/04/29 11:42:01;;;;;;;;;;;;;;;21.70;40.67;99802.97;4878035;28;99574;-81
2021/04/29 11:44:28;;;;;;;;;;;;;;;21.42;41.03;99809.28;4882808;28;98048;-80
2021/04/29 11:46:54;;;;;;;;;;;;;;;21.42;40.63;99802.09;4886112;28;96840;-81
2021/04/29 11:49:20;;;;;;;;;;;;;;;20.85;41.01;99808.38;4887571;28;97086;-79
2021/04/29 11:51:50;;;;;;;;;;;;;;;21.22;39.87;99813.88;4883954;28;99028;-80
2021/04/29 11:54:18;;;;;;;;;;;;;;;21.48;39.95;99809.56;4873357;28;100980;-81
2021/04/29 11:56:45;;;;;;;;;;;;;;;21.15;39.98;99817.25;4872407;28;97269;-81
2021/04/29 11:59:11;;;;;;;;;;;;;;;21.55;40.30;99817.03;4877354;28;96817;-80
2021/04/29 12:01:37;;;;;;;;;;;;;;;21.98;39.25;99824.53;4870320;28;101628;-80
2021/04/29 12:04:13;;;;;;;;;;;;;;;21.23;39.45;99820.09;4865096;28;98914;-79
2021/04/29 12:06:50;;;;;;;;;;;;;;;21.59;39.58;99811.25;4876648;28;97136;-80
2021/04/29 12:09:17;;;;;;;;;;;;;;;21.56;40.19;99814.22;4871194;28;96867;-80
2021/04/29 12:11:43;;;;;;;;;;;;;;;21.33;38.88;99804.81;4883263;28;99026;-80
2021/04/29 12:14:09;;;;;;;;;;;;;;;21.58;38.57;99808.69;4878526;28;101342;-80
2021/04/29 12:16:36;;;;;;;;;;;;;;;22.23;37.98;99819.31;4879980;28;96826;-80
2021/04/29 12:19:03;;;;;;;;;;;;;;;22.34;37.97;99815.53;4879770;28;97379;-81
2021/04/29 12:21:32;;;;;;;;;;;;;;;21.84;38.31;99815.94;4877115;28;97792;-81
2021/04/29 12:23:58;;;;;;;;;;;;;;;22.06;37.87;99819.25;4878484;28;97910;-81
2021/04/29 12:26:29;;;;;;;;;;;;;;;21.74;37.62;99822.34;4879497;28;97111;-81
2021/04/29 12:28:58;;;;;;;;;;;;;;;22.33;36.95;99816.53;4878046;28;96876;-81
2021/04/29 12:31:24;;;;;;;;;;;;;;;22.52;36.85;99810.16;4884875;28;102145;-81
2021/04/29 12:33:55;;;;;;;;;;;;;;;22.18;36.98;99823.44;4878262;28;98820;-81
2021/04/29 12:36:21;;;;;;;;;;;;;;;22.50;36.29;99826.50;4868262;28;98503;-81
2021/04/29 12:38:48;;;;;;;;;;;;;;;22.63;35.50;99821.56;4894878;28;96957;-80
2021/04/29 12:41:14;;;;;;;;;;;;;;;22.64;35.95;99830.50;4891377;28;99639;-80
2021/04/29 12:43:41;;;;;;;;;;;;;;;22.46;35.88;99827.78;4898556;28;101565;-81
2021/04/29 12:46:07;;;;;;;;;;;;;;;21.66;37.13;99828.44;4897065;28;97328;-81